Time;durP1;ratioP1;P1;durP2;ratioP2;P2;SDS_P1;SDS_P2;PMS_P1;PMS_P2;Temp;Humidity;BMP_temperature;BMP_pressure;BME280_temperature;BME280_humidity;BME280_pressure;Samples;Min_cycle;Max_cycle;Signal;HPM_P1;HPM_P2
2023/07/02 00:01:33;;;;;;;8.97;7.90;;;;;;;23.53;95.13;98671.84;5032759;28;20203;-66
2023/07/02 00:04:02;;;;;;;7.97;7.10;;;;;;;23.53;95.32;98674.56;5032702;28;20240;-64
2023/07/02 00:06:28;;;;;;;7.53;6.87;;;;;;;23.49;96.25;98673.56;5032630;28;20553;-64
2023/07/02 00:08:55;;;;;;;7.87;7.07;;;;;;;23.44;96.62;98673.66;5032616;28;20248;-64
2023/07/02 00:11:22;;;;;;;7.97;7.27;;;;;;;23.44;96.43;98676.38;5032111;28;20273;-64
2023/07/02 00:13:48;;;;;;;7.77;7.17;;;;;;;23.43;96.56;98680.19;5032847;28;20199;-64
2023/07/02 00:16:15;;;;;;;7.47;6.90;;;;;;;23.38;96.89;98674.88;5032606;28;20199;-64
2023/07/02 00:18:42;;;;;;;8.90;8.03;;;;;;;23.35;97.21;98677.34;5032449;28;20203;-64
2023/07/02 00:21:13;;;;;;;9.57;8.33;;;;;;;23.31;97.29;98674.44;5032755;28;20207;-64
2023/07/02 00:23:39;;;;;;;8.23;7.63;;;;;;;23.25;97.25;98670.22;5032668;28;20222;-64
2023/07/02 00:26:06;;;;;;;11.07;7.43;;;;;;;23.21;96.89;98676.53;5031917;28;20195;-64
2023/07/02 00:28:33;;;;;;;9.83;7.70;;;;;;;23.16;98.30;98682.00;5032275;28;20218;-64
2023/07/02 00:31:01;;;;;;;9.60;8.70;;;;;;;23.06;98.46;98672.13;5032197;28;20253;-64
2023/07/02 00:33:28;;;;;;;12.47;8.73;;;;;;;23.05;97.50;98670.53;5032204;28;20199;-64
2023/07/02 00:35:55;;;;;;;8.87;7.97;;;;;;;23.07;96.84;98673.75;5031975;28;20198;-64
2023/07/02 00:38:23;;;;;;;8.50;7.77;;;;;;;23.05;96.78;98684.09;5032021;28;20264;-64
2023/07/02 00:40:50;;;;;;;8.73;7.93;;;;;;;22.96;97.64;98685.88;5031535;28;20200;-64
2023/07/02 00:43:17;;;;;;;8.80;8.00;;;;;;;22.82;97.49;98682.28;5031963;28;20662;-65
2023/07/02 00:45:45;;;;;;;8.20;7.40;;;;;;;22.81;98.32;98675.25;5032446;28;20260;-64
2023/07/02 00:48:12;;;;;;;10.70;7.77;;;;;;;22.80;97.17;98681.78;5031989;28;20306;-64
2023/07/02 00:50:40;;;;;;;7.80;7.00;;;;;;;22.82;97.22;98681.50;5031985;28;20209;-64
2023/07/02 00:53:07;;;;;;;7.37;6.93;;;;;;;22.83;97.44;98675.75;5031154;28;20252;-64
2023/07/02 00:55:35;;;;;;;7.50;6.90;;;;;;;22.85;96.94;98673.56;5031987;28;20221;-64
2023/07/02 00:58:01;;;;;;;7.13;6.57;;;;;;;22.89;96.21;98658.34;5032269;28;20191;-65
2023/07/02 01:00:28;;;;;;;7.97;6.33;;;;;;;22.94;95.46;98655.53;5032250;28;20264;-64
2023/07/02 01:02:58;;;;;;;9.50;6.97;;;;;;;22.94;93.83;98660.97;5032090;28;20270;-64
2023/07/02 01:05:32;;;;;;;8.17;6.60;;;;;;;22.95;92.85;98651.72;5031691;28;20582;-64
2023/07/02 01:07:58;;;;;;;6.57;6.07;;;;;;;22.92;91.00;98668.59;5032111;28;20187;-64
2023/07/02 01:10:26;;;;;;;7.43;6.13;;;;;;;22.89;90.29;98666.47;5031031;28;20191;-64
2023/07/02 01:12:55;;;;;;;7.03;6.27;;;;;;;22.82;87.91;98674.16;5031573;28;20230;-64
2023/07/02 01:15:22;;;;;;;5.93;5.53;;;;;;;22.69;88.80;98666.78;5031736;28;20244;-65
2023/07/02 01:17:49;;;;;;;6.10;5.60;;;;;;;22.73;89.52;98665.09;5031907;28;20283;-64
2023/07/02 01:20:17;;;;;;;6.70;6.10;;;;;;;22.78;88.98;98666.94;5032096;28;20251;-65
2023/07/02 01:22:43;;;;;;;8.67;6.30;;;;;;;22.81;89.85;98672.56;5031652;28;20667;-64
2023/07/02 01:25:10;;;;;;;7.40;6.70;;;;;;;22.79;90.00;98663.91;5031589;28;20267;-65
2023/07/02 01:27:37;;;;;;;6.20;5.80;;;;;;;22.71;89.36;98661.06;5030656;28;20732;-65
2023/07/02 01:30:04;;;;;;;7.30;5.97;;;;;;;22.57;89.77;98639.34;5031624;28;20248;-65
2023/07/02 01:32:31;;;;;;;8.73;5.73;;;;;;;22.66;90.48;98653.81;5031863;28;20264;-66
2023/07/02 01:35:00;;;;;;;6.67;5.90;;;;;;;22.67;90.67;98660.06;5031860;28;20676;-64
2023/07/02 01:37:28;;;;;;;6.40;5.77;;;;;;;22.67;90.59;98660.84;5031556;28;20198;-66
2023/07/02 01:39:55;;;;;;;7.00;6.37;;;;;;;22.72;90.22;98658.09;5035644;28;20198;-64
2023/07/02 01:42:22;;;;;;;6.70;6.20;;;;;;;22.69;89.09;98653.25;5035802;28;20198;-65
2023/07/02 01:44:51;;;;;;;7.20;6.60;;;;;;;22.68;89.10;98646.22;5034778;28;20279;-64
2023/07/02 01:47:19;;;;;;;6.60;6.00;;;;;;;22.72;90.12;98641.84;5035783;28;20233;-65
2023/07/02 01:49:46;;;;;;;14.83;6.43;;;;;;;22.73;90.52;98654.25;5035260;28;20203;-64
2023/07/02 01:52:13;;;;;;;12.70;6.50;;;;;;;22.74;90.90;98649.66;5035665;28;20193;-64
2023/07/02 01:54:41;;;;;;;8.07;5.80;;;;;;;22.70;91.53;98637.81;5035183;28;20666;-64
2023/07/02 01:57:08;;;;;;;9.77;6.67;;;;;;;22.71;90.79;98628.59;5035273;28;20199;-65
2023/07/02 01:59:35;;;;;;;7.37;6.33;;;;;;;22.72;90.21;98625.59;5035309;28;20204;-68
2023/07/02 02:02:02;;;;;;;8.50;6.93;;;;;;;22.76;89.70;98629.31;5034434;28;20623;-66
2023/07/02 02:04:29;;;;;;;6.57;6.17;;;;;;;22.81;89.99;98636.53;5034898;28;20226;-65
2023/07/02 02:06:55;;;;;;;7.47;6.93;;;;;;;22.75;90.81;98635.81;5035300;28;20198;-64
2023/07/02 02:09:22;;;;;;;7.73;7.13;;;;;;;22.74;91.32;98642.31;5034848;28;20198;-65
2023/07/02 02:11:52;;;;;;;6.67;6.07;;;;;;;22.67;90.50;98638.41;5035265;28;20194;-64
2023/07/02 02:14:19;;;;;;;8.70;6.63;;;;;;;22.64;91.46;98633.56;5035092;28;20558;-65
2023/07/02 02:16:46;;;;;;;7.97;7.13;;;;;;;22.57;91.51;98628.53;5035027;28;20283;-65
2023/07/02 02:19:14;;;;;;;7.17;6.47;;;;;;;22.52;92.06;98630.50;5034021;28;20223;-65
2023/07/02 02:21:41;;;;;;;9.70;6.57;;;;;;;22.59;92.19;98620.94;5034795;28;20204;-64
2023/07/02 02:24:08;;;;;;;7.53;6.80;;;;;;;22.64;92.17;98626.25;5034684;28;20644;-65
2023/07/02 02:26:34;;;;;;;7.73;6.53;;;;;;;22.66;91.35;98628.69;5034663;28;20201;-65
2023/07/02 02:29:03;;;;;;;8.40;6.60;;;;;;;22.68;91.59;98619.16;5034556;28;20665;-65
2023/07/02 02:31:30;;;;;;;7.07;6.47;;;;;;;22.66;91.96;98632.16;5034775;28;20233;-65
2023/07/02 02:33:57;;;;;;;8.60;6.87;;;;;;;22.67;92.36;98638.41;5033935;28;20210;-65
2023/07/02 02:36:24;;;;;;;8.20;6.13;;;;;;;22.70;92.50;98637.81;5034716;28;20198;-64
2023/07/02 02:38:50;;;;;;;7.53;6.87;;;;;;;22.69;92.73;98644.31;5034505;28;20255;-64
2023/07/02 02:41:17;;;;;;;8.80;6.87;;;;;;;22.75;92.17;98653.97;5034705;28;20191;-65
2023/07/02 02:43:44;;;;;;;11.27;6.80;;;;;;;22.76;92.17;98653.69;5033781;28;20607;-64
2023/07/02 02:46:13;;;;;;;12.27;6.70;;;;;;;22.78;91.48;98654.19;5034714;28;20255;-64
2023/07/02 02:48:40;;;;;;;8.33;6.37;;;;;;;22.80;91.12;98641.16;5033737;28;20201;-64
2023/07/02 02:51:07;;;;;;;13.23;7.30;;;;;;;22.83;90.29;98653.31;5032897;28;20197;-64
2023/07/02 02:53:33;;;;;;;9.47;6.77;;;;;;;22.73;90.56;98656.97;5034095;28;20198;-65
2023/07/02 02:56:00;;;;;;;10.23;6.83;;;;;;;22.61;90.67;98662.03;5034500;28;20205;-64
2023/07/02 02:58:27;;;;;;;10.53;6.73;;;;;;;22.49;89.43;98664.38;5034451;28;20193;-64
2023/07/02 03:00:54;;;;;;;7.17;6.67;;;;;;;22.41;89.64;98677.75;5034039;28;20678;-64
2023/07/02 03:03:24;;;;;;;7.27;6.43;;;;;;;22.28;90.37;98683.84;5033957;28;20194;-64
2023/07/02 03:05:51;;;;;;;7.17;6.67;;;;;;;22.26;90.53;98686.84;5034011;28;20221;-64
2023/07/02 03:08:17;;;;;;;10.23;6.73;;;;;;;22.28;89.92;98679.25;5033023;28;20193;-65
2023/07/02 03:10:44;;;;;;;7.60;6.87;;;;;;;22.19;89.47;98685.59;5033812;28;20259;-64
2023/07/02 03:13:11;;;;;;;7.23;6.63;;;;;;;22.17;90.31;98685.88;5034157;28;20197;-64
2023/07/02 03:15:37;;;;;;;8.23;6.37;;;;;;;22.18;90.89;98690.22;5034008;28;20255;-64
2023/07/02 03:18:04;;;;;;;7.57;6.73;;;;;;;22.24;90.98;98683.63;5034036;28;20193;-64
2023/07/02 03:20:32;;;;;;;7.60;6.90;;;;;;;22.33;91.04;98691.94;5033901;28;20227;-64
2023/07/02 03:22:59;;;;;;;6.97;6.47;;;;;;;22.33;90.85;98691.94;5033251;28;20296;-68
2023/07/02 03:25:26;;;;;;;8.17;7.03;;;;;;;22.19;90.73;98708.06;5013944;28;20284;-64
2023/07/02 03:27:52;;;;;;;9.67;7.10;;;;;;;22.12;91.51;98710.31;5014117;28;20190;-64
2023/07/02 03:30:19;;;;;;;8.47;7.30;;;;;;;22.04;91.63;98710.13;5013889;28;20194;-65
2023/07/02 03:32:46;;;;;;;9.43;7.07;;;;;;;21.95;92.60;98712.69;5014116;28;20249;-64
2023/07/02 03:35:13;;;;;;;8.93;7.33;;;;;;;21.90;92.75;98706.53;5013785;28;20198;-64
2023/07/02 03:37:43;;;;;;;10.53;7.33;;;;;;;21.88;92.97;98711.44;5013833;28;20194;-64
2023/07/02 03:40:10;;;;;;;8.17;7.47;;;;;;;21.84;93.53;98711.19;5018793;28;20236;-64
2023/07/02 03:42:37;;;;;;;9.00;7.90;;;;;;;21.76;93.73;98709.09;5032987;28;20198;-65
2023/07/02 03:45:04;;;;;;;13.93;8.37;;;;;;;21.72;93.40;98713.47;5033379;28;20229;-64
2023/07/02 03:47:31;;;;;;;8.73;7.60;;;;;;;21.55;94.47;98713.09;5033430;28;20244;-64
2023/07/02 03:49:57;;;;;;;9.07;7.73;;;;;;;21.41;95.13;98712.16;5033357;28;20255;-64
2023/07/02 03:52:24;;;;;;;12.97;8.10;;;;;;;21.61;94.44;98708.44;5033001;28;20193;-64
2023/07/02 03:54:52;;;;;;;10.53;7.63;;;;;;;21.66;94.31;98713.78;5033444;28;20197;-64
2023/07/02 03:57:19;;;;;;;12.17;8.07;;;;;;;21.62;94.72;98702.75;5032190;28;20193;-65
2023/07/02 03:59:46;;;;;;;15.03;7.57;;;;;;;21.68;93.70;98707.00;5033188;28;20194;-64
2023/07/02 04:02:12;;;;;;;8.43;7.57;;;;;;;21.70;94.11;98707.56;5032410;28;20195;-64
2023/07/02 04:04:39;;;;;;;12.83;7.73;;;;;;;21.84;94.23;98710.38;5032499;28;20225;-64
2023/07/02 04:07:06;;;;;;;8.20;7.40;;;;;;;21.79;92.95;98705.84;5032556;28;20200;-64
2023/07/02 04:09:33;;;;;;;8.77;7.93;;;;;;;21.55;94.08;98712.28;5032554;28;20665;-64
2023/07/02 04:12:01;;;;;;;10.53;7.87;;;;;;;21.48;94.85;98723.41;5032917;28;20259;-64
2023/07/02 04:14:28;;;;;;;15.40;8.50;;;;;;;21.52;95.17;98713.63;5031609;28;20208;-64
2023/07/02 04:16:55;;;;;;;10.33;7.97;;;;;;;21.63;95.81;98712.47;5032764;28;20251;-64
2023/07/02 04:19:21;;;;;;;12.93;8.10;;;;;;;21.86;94.96;98702.78;5032665;28;20205;-65
2023/07/02 04:21:48;;;;;;;10.10;8.10;;;;;;;21.96;93.72;98708.88;5032686;28;20248;-64
2023/07/02 04:24:15;;;;;;;15.00;8.90;;;;;;;22.11;93.83;98716.81;5032704;28;20193;-64
2023/07/02 04:26:42;;;;;;;19.30;8.53;;;;;;;22.21;92.82;98721.31;5032216;28;20727;-64
2023/07/02 04:29:11;;;;;;;8.77;7.60;;;;;;;22.29;93.39;98723.38;5032601;28;20198;-64
2023/07/02 04:31:38;;;;;;;12.83;9.03;;;;;;;22.43;92.55;98718.84;5031452;28;20227;-64
2023/07/02 04:34:05;;;;;;;9.57;6.70;;;;;;;23.07;91.33;98725.22;5032186;28;20193;-64
2023/07/02 04:36:32;;;;;;;12.73;7.97;;;;;;;24.12;85.13;98728.78;5032004;28;20240;-64
2023/07/02 04:38:59;;;;;;;11.23;6.97;;;;;;;24.54;82.32;98733.88;5032390;28;20193;-64
2023/07/02 04:41:27;;;;;;;11.63;8.67;;;;;;;24.63;80.48;98737.50;5032159;28;20198;-64
2023/07/02 04:43:53;;;;;;;11.67;7.27;;;;;;;24.52;80.16;98736.09;5032053;28;20741;-64
2023/07/02 04:46:21;;;;;;;11.67;7.67;;;;;;;24.90;79.53;98734.72;5031840;28;20251;-64
2023/07/02 04:48:48;;;;;;;9.63;6.97;;;;;;;25.59;75.95;98744.19;5031343;28;20206;-64
2023/07/02 04:51:15;;;;;;;9.67;7.00;;;;;;;25.61;74.47;98762.91;5031768;28;20258;-64
2023/07/02 04:53:41;;;;;;;7.47;6.77;;;;;;;25.33;74.60;98767.72;5031973;28;20254;-64
2023/07/02 04:56:08;;;;;;;10.93;7.37;;;;;;;25.08;75.63;98764.75;5031791;28;20761;-64
2023/07/02 04:58:35;;;;;;;9.43;7.80;;;;;;;25.08;75.46;98760.91;5031768;28;20196;-64
2023/07/02 05:01:02;;;;;;;12.00;7.37;;;;;;;25.21;75.71;98763.88;5031795;28;20603;-65
2023/07/02 05:03:30;;;;;;;10.10;7.27;;;;;;;26.46;73.03;98774.22;5031840;28;20201;-68
2023/07/02 05:05:57;;;;;;;9.33;7.33;;;;;;;27.28;68.17;98769.56;5030354;28;20217;-64
2023/07/02 05:08:23;;;;;;;7.30;6.60;;;;;;;27.42;68.02;98768.25;5031996;28;20194;-64
2023/07/02 05:10:50;;;;;;;11.07;7.70;;;;;;;27.19;70.76;98768.75;5031983;28;20189;-64
2023/07/02 05:13:17;;;;;;;13.23;8.50;;;;;;;26.59;74.07;98757.78;5029866;28;20185;-64
2023/07/02 05:15:44;;;;;;;16.80;7.80;;;;;;;26.06;77.14;98754.41;5031836;28;20255;-64
2023/07/02 05:18:11;;;;;;;8.90;7.90;;;;;;;25.92;78.53;98758.31;5031987;28;20197;-64
2023/07/02 05:20:39;;;;;;;7.60;6.90;;;;;;;25.93;76.16;98768.06;5030690;28;20189;-62
2023/07/02 05:23:05;;;;;;;13.13;7.97;;;;;;;25.98;77.80;98771.50;5031659;28;20251;-64
2023/07/02 05:25:33;;;;;;;8.63;7.83;;;;;;;25.82;79.59;98774.88;5031669;28;20286;-64
2023/07/02 05:28:00;;;;;;;12.00;8.13;;;;;;;25.69;80.12;98786.66;5031595;28;20206;-64
2023/07/02 05:30:27;;;;;;;10.93;8.53;;;;;;;25.57;82.65;98784.50;5031756;28;20194;-65
2023/07/02 05:32:53;;;;;;;9.97;8.97;;;;;;;25.17;81.64;98790.09;5031998;28;20644;-65
2023/07/02 05:35:20;;;;;;;11.40;8.70;;;;;;;24.96;84.10;98790.53;5031719;28;20197;-65
2023/07/02 05:37:48;;;;;;;12.50;8.30;;;;;;;24.91;84.59;98798.81;5030984;28;20258;-64
2023/07/02 05:40:15;;;;;;;15.80;9.40;;;;;;;24.90;83.44;98810.00;5031432;28;20498;-64
2023/07/02 05:42:42;;;;;;;10.63;8.57;;;;;;;24.79;83.08;98812.13;5031741;28;20201;-64
2023/07/02 05:45:10;;;;;;;8.73;7.93;;;;;;;24.62;81.32;98814.66;5031609;28;20221;-64
2023/07/02 05:47:36;;;;;;;10.77;7.50;;;;;;;24.53;81.38;98812.94;5031716;28;20200;-65
2023/07/02 05:50:03;;;;;;;8.33;7.53;;;;;;;24.10;83.06;98809.69;5031825;28;20196;-65
2023/07/02 05:52:30;;;;;;;8.90;8.00;;;;;;;24.14;82.77;98799.84;5031632;28;20189;-65
2023/07/02 05:54:58;;;;;;;10.37;7.97;;;;;;;24.09;82.76;98789.09;5030821;28;20684;-64
2023/07/02 05:57:25;;;;;;;9.47;8.23;;;;;;;24.04;83.00;98772.91;5031625;28;20230;-64
2023/07/02 05:59:52;;;;;;;8.77;8.00;;;;;;;24.14;83.00;98789.00;5031627;28;20195;-65
2023/07/02 06:02:18;;;;;;;10.67;7.83;;;;;;;24.22;83.25;98790.22;5030848;28;20211;-65
2023/07/02 06:04:45;;;;;;;10.03;8.00;;;;;;;24.16;84.15;98799.56;5031426;28;20266;-65
2023/07/02 06:07:12;;;;;;;11.30;9.03;;;;;;;23.87;86.62;98805.22;5031355;28;20227;-65
2023/07/02 06:09:38;;;;;;;10.90;8.70;;;;;;;23.84;86.33;98800.38;5031520;28;20196;-65
2023/07/02 06:12:07;;;;;;;9.20;8.33;;;;;;;23.90;86.91;98790.25;5030801;28;20196;-65
2023/07/02 06:14:34;;;;;;;11.63;8.53;;;;;;;23.98;87.55;98784.97;5031332;28;20201;-65
2023/07/02 06:17:03;;;;;;;10.63;8.43;;;;;;;24.12;88.00;98788.50;5031107;28;20571;-64
2023/07/02 06:19:30;;;;;;;9.67;8.40;;;;;;;24.31;86.75;98789.22;5031622;28;20205;-64
2023/07/02 06:21:56;;;;;;;12.97;8.53;;;;;;;24.39;85.52;98780.34;5031397;28;20196;-64
2023/07/02 06:24:23;;;;;;;9.30;8.40;;;;;;;24.52;84.63;98790.41;5033092;28;20208;-65
2023/07/02 06:26:50;;;;;;;8.30;7.53;;;;;;;24.69;83.83;98796.06;5034350;28;20301;-64
2023/07/02 06:29:18;;;;;;;9.00;8.20;;;;;;;24.89;83.37;98782.03;5033470;28;20191;-67
2023/07/02 06:31:44;;;;;;;9.40;8.50;;;;;;;25.12;82.75;98782.06;5033134;28;20232;-65
2023/07/02 06:34:11;;;;;;;9.27;8.37;;;;;;;25.34;80.31;98782.09;5033214;28;20250;-65
2023/07/02 06:36:38;;;;;;;12.10;8.17;;;;;;;25.50;79.97;98769.72;5032578;28;20577;-65
2023/07/02 06:39:05;;;;;;;8.43;7.33;;;;;;;25.75;80.10;98778.06;5033763;28;20205;-65
2023/07/02 06:41:31;;;;;;;11.13;7.80;;;;;;;25.97;78.64;98788.13;5033517;28;20197;-66
2023/07/02 06:43:58;;;;;;;8.80;7.90;;;;;;;26.16;77.30;98781.31;5033247;28;20185;-65
2023/07/02 06:46:26;;;;;;;8.87;7.97;;;;;;;26.37;74.86;98789.75;5033945;28;20606;-65
2023/07/02 06:48:53;;;;;;;10.77;8.13;;;;;;;26.52;75.14;98781.94;5034537;28;20251;-64
2023/07/02 06:51:21;;;;;;;8.37;7.20;;;;;;;26.92;72.82;98788.13;5033996;28;20730;-64
2023/07/02 06:53:48;;;;;;;7.37;6.67;;;;;;;27.38;70.55;98785.59;5034165;28;20657;-64
2023/07/02 06:56:15;;;;;;;10.60;7.00;;;;;;;27.83;69.15;98781.38;5033933;28;20202;-65
2023/07/02 06:58:44;;;;;;;7.30;6.53;;;;;;;28.07;67.71;98792.53;5034176;28;20196;-64
2023/07/02 07:01:10;;;;;;;7.77;7.00;;;;;;;28.21;66.34;98793.09;5033302;28;20278;-65
2023/07/02 07:03:39;;;;;;;7.50;6.80;;;;;;;28.34;67.21;98792.13;5034117;28;20679;-64
2023/07/02 07:06:05;;;;;;;7.63;6.87;;;;;;;28.47;67.54;98793.84;5033594;28;20631;-65
2023/07/02 07:08:32;;;;;;;7.17;6.57;;;;;;;28.56;67.12;98800.06;5033206;28;20205;-65
2023/07/02 07:10:59;;;;;;;8.27;6.57;;;;;;;28.61;66.10;98799.88;5033755;28;20665;-64
2023/07/02 07:13:25;;;;;;;7.43;6.97;;;;;;;28.44;65.36;98791.75;5033972;28;20197;-65
2023/07/02 07:15:52;;;;;;;7.57;6.37;;;;;;;28.20;66.80;98792.31;5034035;28;20320;-64
2023/07/02 07:18:19;;;;;;;6.90;6.20;;;;;;;28.33;66.64;98790.50;5032881;28;20676;-65
2023/07/02 07:20:47;;;;;;;7.50;6.80;;;;;;;28.44;65.63;98794.50;5033811;28;20195;-64
2023/07/02 07:23:15;;;;;;;9.27;7.43;;;;;;;28.19;65.59;98784.47;5033475;28;20247;-65
2023/07/02 07:25:41;;;;;;;7.57;6.87;;;;;;;28.13;66.17;98786.56;5033651;28;20225;-62
2023/07/02 07:28:11;;;;;;;8.07;7.27;;;;;;;28.16;66.39;98787.84;5033519;28;20193;-65
2023/07/02 07:30:38;;;;;;;8.13;6.73;;;;;;;28.28;66.29;98782.47;5033485;28;20208;-63
2023/07/02 07:33:05;;;;;;;8.87;7.67;;;;;;;28.33;64.84;98783.09;5032046;28;20271;-64
2023/07/02 07:35:31;;;;;;;7.37;6.60;;;;;;;28.25;64.20;98788.59;5032372;28;20205;-63
2023/07/02 07:38:00;;;;;;;7.27;6.57;;;;;;;28.19;65.16;98779.00;5033194;28;20190;-64
2023/07/02 07:40:26;;;;;;;9.97;6.63;;;;;;;28.26;64.91;98787.50;5033002;28;20224;-64
2023/07/02 07:42:53;;;;;;;6.97;6.33;;;;;;;28.73;63.38;98789.03;5033257;28;20202;-63
2023/07/02 07:45:20;;;;;;;7.73;6.20;;;;;;;29.05;60.76;98793.81;5033153;28;20193;-64
2023/07/02 07:47:46;;;;;;;7.30;6.80;;;;;;;29.31;59.88;98788.94;5033209;28;20196;-63
2023/07/02 07:50:13;;;;;;;6.67;5.90;;;;;;;29.48;59.68;98788.78;5031901;28;20205;-64
2023/07/02 07:52:40;;;;;;;7.77;6.77;;;;;;;29.68;58.63;98782.50;5033141;28;20300;-64
2023/07/02 07:55:09;;;;;;;6.63;6.13;;;;;;;29.86;58.19;98783.13;5033095;28;20197;-64
2023/07/02 07:57:37;;;;;;;6.67;6.17;;;;;;;29.98;56.73;98783.13;5032744;28;20550;-64
2023/07/02 08:00:07;;;;;;;8.03;6.80;;;;;;;30.14;56.15;98781.38;5032746;28;20196;-64
2023/07/02 08:02:34;;;;;;;7.07;6.57;;;;;;;30.15;55.36;98789.25;5032579;28;20658;-64
2023/07/02 08:05:01;;;;;;;7.73;6.77;;;;;;;30.06;56.48;98777.56;5032975;28;20271;-64
2023/07/02 08:07:27;;;;;;;9.80;6.80;;;;;;;30.10;56.14;98775.75;5032110;28;20221;-65
2023/07/02 08:09:54;;;;;;;7.83;6.50;;;;;;;30.42;54.52;98777.59;5032557;28;20197;-64
2023/07/02 08:12:22;;;;;;;6.53;6.13;;;;;;;30.58;53.67;98778.50;5032400;28;20616;-64
2023/07/02 08:14:49;;;;;;;6.60;6.07;;;;;;;30.88;52.01;98785.38;5032137;28;20189;-64
2023/07/02 08:17:16;;;;;;;7.67;6.93;;;;;;;31.19;51.14;98788.25;5032579;28;20201;-65
2023/07/02 08:19:43;;;;;;;10.53;6.80;;;;;;;31.42;49.09;98797.59;5032308;28;20193;-64
2023/07/02 08:22:09;;;;;;;7.07;6.47;;;;;;;31.37;50.82;98786.88;5032223;28;20194;-65
2023/07/02 08:24:36;;;;;;;6.23;5.73;;;;;;;31.52;49.69;98791.59;5031996;28;20255;-65
2023/07/02 08:27:03;;;;;;;7.00;6.37;;;;;;;31.70;50.37;98787.41;5032537;28;20275;-65
2023/07/02 08:29:31;;;;;;;6.47;6.07;;;;;;;31.83;49.39;98797.22;5032434;28;20276;-64
2023/07/02 08:31:58;;;;;;;7.17;6.53;;;;;;;32.03;48.88;98798.94;5032685;28;20233;-64
2023/07/02 08:34:25;;;;;;;6.57;6.07;;;;;;;32.01;48.96;98787.47;5032391;28;20197;-65
2023/07/02 08:36:52;;;;;;;8.50;6.10;;;;;;;32.26;48.00;98788.91;5032528;28;20196;-64
2023/07/02 08:39:19;;;;;;;7.07;6.57;;;;;;;31.88;48.34;98794.19;5031598;28;20204;-65
2023/07/02 08:41:47;;;;;;;8.07;7.37;;;;;;;31.72;48.72;98782.34;5031881;28;20656;-65
2023/07/02 08:44:14;;;;;;;6.87;6.33;;;;;;;31.35;50.88;98772.69;5032252;28;20193;-65
2023/07/02 08:46:43;;;;;;;7.00;6.20;;;;;;;31.62;49.71;98774.63;5032113;28;20246;-65
2023/07/02 08:49:10;;;;;;;6.73;6.03;;;;;;;31.90;48.78;98778.19;5032190;28;20197;-65
2023/07/02 08:51:38;;;;;;;6.90;6.40;;;;;;;32.10;49.32;98776.31;5031765;28;20197;-64
2023/07/02 08:54:05;;;;;;;6.43;6.03;;;;;;;32.52;47.84;98780.94;5031751;28;20217;-65
2023/07/02 08:56:31;;;;;;;7.07;6.33;;;;;;;32.71;47.20;98783.72;5031007;28;20193;-64
2023/07/02 08:58:58;;;;;;;6.87;6.00;;;;;;;32.86;45.62;98785.69;5031694;28;20255;-64
2023/07/02 09:01:25;;;;;;;6.90;5.97;;;;;;;32.89;44.19;98779.47;5032100;28;20270;-65
2023/07/02 09:03:53;;;;;;;7.43;6.20;;;;;;;32.89;44.80;98773.97;5031947;28;20276;-64
2023/07/02 09:06:20;;;;;;;7.97;7.33;;;;;;;32.89;45.81;98768.47;5030953;28;20278;-65
2023/07/02 09:08:46;;;;;;;11.13;6.87;;;;;;;32.79;45.02;98765.44;5031515;28;20284;-64
2023/07/02 09:11:15;;;;;;;6.63;6.00;;;;;;;32.83;43.97;98769.88;5031585;28;20193;-65
2023/07/02 09:13:47;;;;;;;6.33;5.87;;;;;;;32.91;45.30;98766.13;5031143;28;20193;-65
2023/07/02 09:16:24;;;;;;;7.00;6.33;;;;;;;32.90;44.86;98759.06;5031434;28;20255;-66
2023/07/02 09:19:04;;;;;;;6.30;5.80;;;;;;;32.92;44.93;98753.19;5031941;28;20200;-64
2023/07/02 09:21:41;;;;;;;9.50;6.77;;;;;;;32.32;46.11;98738.03;5031703;28;20665;-65
2023/07/02 09:24:15;;;;;;;6.90;6.20;;;;;;;31.81;47.38;98733.56;5031900;28;20588;-65
2023/07/02 09:26:44;;;;;;;6.63;6.03;;;;;;;31.84;47.19;98738.34;5031864;28;20220;-64
2023/07/02 09:29:10;;;;;;;6.53;6.00;;;;;;;31.72;48.67;98740.38;5031723;28;20276;-68
2023/07/02 09:31:44;;;;;;;7.77;6.23;;;;;;;31.82;48.53;98735.19;5030108;28;20225;-64
2023/07/02 09:34:13;;;;;;;6.30;5.90;;;;;;;31.88;47.08;98732.94;5031881;28;20181;-64
2023/07/02 09:36:40;;;;;;;6.37;5.90;;;;;;;31.93;47.51;98730.72;5031757;28;20578;-64
2023/07/02 09:39:08;;;;;;;9.77;6.10;;;;;;;31.76;48.48;98725.59;5031440;28;20194;-65
2023/07/02 09:41:35;;;;;;;7.00;6.43;;;;;;;32.04;47.92;98734.56;5031447;28;20189;-65
2023/07/02 09:44:03;;;;;;;6.50;6.00;;;;;;;31.88;47.40;98733.75;5031775;28;20189;-65
2023/07/02 09:46:32;;;;;;;6.67;6.07;;;;;;;31.86;47.47;98738.81;5030814;28;20347;-65
2023/07/02 09:49:00;;;;;;;9.37;7.00;;;;;;;31.90;47.99;98739.72;5031657;28;20243;-65
2023/07/02 09:51:29;;;;;;;6.03;5.50;;;;;;;32.05;47.37;98738.88;5031448;28;20201;-64
2023/07/02 09:53:55;;;;;;;6.73;6.07;;;;;;;31.67;47.49;98737.84;5031314;28;20201;-64
2023/07/02 09:56:22;;;;;;;5.90;5.27;;;;;;;31.41;48.09;98746.59;5031298;28;20197;-65
2023/07/02 09:58:49;;;;;;;6.50;5.73;;;;;;;31.36;49.14;98738.59;5032146;28;20617;-65
2023/07/02 10:01:16;;;;;;;10.87;5.73;;;;;;;31.51;48.51;98740.59;5035643;28;20225;-64
2023/07/02 10:03:42;;;;;;;6.60;6.00;;;;;;;31.57;48.96;98733.69;5034379;28;20193;-65
2023/07/02 10:06:09;;;;;;;6.57;5.93;;;;;;;31.58;47.61;98738.03;5034945;28;20197;-64
2023/07/02 10:08:37;;;;;;;6.00;5.50;;;;;;;31.25;48.90;98734.75;5034955;28;20735;-65
2023/07/02 10:11:11;;;;;;;6.03;5.60;;;;;;;30.93;48.39;98735.75;5034944;28;20194;-65
2023/07/02 10:13:38;;;;;;;5.67;5.03;;;;;;;30.72;50.41;98718.66;5035056;28;20248;-65
2023/07/02 10:16:06;;;;;;;7.03;5.87;;;;;;;30.73;52.18;98720.25;5035158;28;20194;-65
2023/07/02 10:18:33;;;;;;;9.17;8.27;;;;;;;30.76;53.34;98733.28;5034301;28;20320;-65
2023/07/02 10:21:00;;;;;;;6.60;6.13;;;;;;;30.77;55.70;98737.63;5034765;28;20620;-64
2023/07/02 10:23:37;;;;;;;6.00;5.27;;;;;;;30.69;56.63;98735.81;5035015;28;20197;-65
2023/07/02 10:26:17;;;;;;;6.70;5.83;;;;;;;30.54;56.54;98739.22;5034651;28;20542;-65
2023/07/02 10:28:44;;;;;;;6.30;5.60;;;;;;;30.05;56.64;98737.59;5034748;28;20690;-64
2023/07/02 10:31:21;;;;;;;8.68;5.88;;;;;;;29.58;58.40;98747.34;5034712;28;20437;-65
2023/07/02 10:33:48;;;;;;;7.03;5.83;;;;;;;29.64;58.52;98740.50;5034341;28;20193;-65
2023/07/02 10:36:23;;;;;;;6.40;5.23;;;;;;;29.59;58.00;98728.97;5034795;28;20193;-65
2023/07/02 10:38:51;;;;;;;9.37;5.23;;;;;;;29.52;58.66;98721.25;5034445;28;20275;-65
2023/07/02 10:41:26;;;;;;;5.63;5.10;;;;;;;29.49;60.08;98713.75;5034711;28;20194;-65
2023/07/02 10:43:53;;;;;;;4.70;4.40;;;;;;;29.48;61.66;98717.59;5034824;28;20219;-65
2023/07/02 10:46:20;;;;;;;5.20;4.80;;;;;;;29.39;62.04;98703.22;5034553;28;20253;-65
2023/07/02 10:48:52;;;;;;;6.90;4.67;;;;;;;29.30;64.80;98716.19;5033325;28;20234;-66
2023/07/02 10:51:19;;;;;;;6.30;5.80;;;;;;;29.17;67.49;98728.22;5034583;28;20243;-65
2023/07/02 10:53:46;;;;;;;11.37;6.73;;;;;;;28.68;70.92;98729.91;5034104;28;20202;-65
2023/07/02 10:56:18;;;;;;;7.93;7.13;;;;;;;28.24;72.26;98737.81;5034175;28;20220;-65
2023/07/02 10:58:46;;;;;;;11.17;8.80;;;;;;;27.95;74.04;98741.34;5034522;28;20189;-65
2023/07/02 11:01:12;;;;;;;21.87;10.20;;;;;;;27.60;75.48;98739.03;5033984;28;20209;-65
2023/07/02 11:03:39;;;;;;;17.17;10.00;;;;;;;27.25;78.90;98743.75;5033723;28;20653;-65
2023/07/02 11:06:06;;;;;;;10.60;9.60;;;;;;;27.18;77.94;98742.56;5034080;28;20251;-65
2023/07/02 11:08:36;;;;;;;10.20;8.60;;;;;;;27.12;78.16;98711.94;5033970;28;20225;-65
2023/07/02 11:11:07;;;;;;;14.27;9.50;;;;;;;27.01;78.04;98704.41;5032655;28;20199;-65
2023/07/02 11:13:44;;;;;;;13.50;9.87;;;;;;;26.87;79.93;98701.84;5034011;28;20193;-65
2023/07/02 11:16:18;;;;;;;11.60;8.73;;;;;;;26.77;84.33;98706.81;5033690;28;20189;-64
2023/07/02 11:18:45;;;;;;;9.43;8.03;;;;;;;26.84;84.00;98721.59;5033671;28;20189;-65
2023/07/02 11:21:11;;;;;;;11.30;7.63;;;;;;;26.90;82.24;98722.22;5032957;28;20574;-65
2023/07/02 11:23:38;;;;;;;8.87;8.07;;;;;;;26.99;81.54;98723.03;5033804;28;20197;-65
2023/07/02 11:26:05;;;;;;;9.67;8.30;;;;;;;27.04;80.18;98714.69;5033361;28;20244;-65
2023/07/02 11:28:34;;;;;;;9.23;8.23;;;;;;;27.03;81.58;98710.34;5032740;28;20780;-65
2023/07/02 11:31:05;;;;;;;9.40;8.50;;;;;;;27.03;81.50;98710.34;5033013;28;20204;-65
2023/07/02 11:33:36;;;;;;;8.87;7.60;;;;;;;27.05;78.61;98705.38;5033356;28;20600;-65